createdAt,value
2023-04-24T00:01:01.417Z,99.90
2023-04-24T00:03:28.388Z,99.90
2023-04-24T00:05:55.255Z,99.90
2023-04-24T00:08:22.875Z,99.90
2023-04-24T00:10:49.061Z,99.90
2023-04-24T00:13:15.233Z,99.90
2023-04-24T00:15:41.429Z,99.90
2023-04-24T00:18:07.656Z,99.90
2023-04-24T00:20:35.786Z,99.90
2023-04-24T00:23:02.044Z,99.90
2023-04-24T00:25:28.258Z,99.90
2023-04-24T00:27:54.476Z,99.90
2023-04-24T00:30:21.246Z,99.90
2023-04-24T00:32:47.550Z,99.90
2023-04-24T00:35:15.344Z,99.90
2023-04-24T00:37:41.553Z,99.90
2023-04-24T00:40:08.394Z,99.90
2023-04-24T00:42:34.887Z,99.90
2023-04-24T00:45:01.322Z,99.90
2023-04-24T00:47:27.498Z,99.90
2023-04-24T00:49:53.687Z,99.90
2023-04-24T00:52:20.784Z,99.90
2023-04-24T00:54:47.038Z,99.90
2023-04-24T00:57:14.404Z,99.90
2023-04-24T00:59:41.658Z,99.90
2023-04-24T01:02:09.312Z,99.90
2023-04-24T01:04:35.734Z,99.90
2023-04-24T01:07:02.107Z,99.90
2023-04-24T01:09:28.269Z,99.90
2023-04-24T01:11:54.440Z,99.90
2023-04-24T01:14:20.863Z,99.90
2023-04-24T01:16:46.999Z,99.90
2023-04-24T01:19:13.215Z,99.90
2023-04-24T01:21:39.359Z,99.90
2023-04-24T01:24:05.765Z,99.90
2023-04-24T01:26:31.912Z,99.90
2023-04-24T01:28:58.054Z,99.90
2023-04-24T01:31:24.476Z,99.90
2023-04-24T01:33:51.329Z,99.90
2023-04-24T01:36:17.506Z,99.90
2023-04-24T01:38:44.847Z,99.90
2023-04-24T01:41:11.032Z,99.90
2023-04-24T01:43:37.228Z,99.90
2023-04-24T01:46:03.390Z,99.90
2023-04-24T01:48:30.472Z,99.90
2023-04-24T01:50:57.347Z,99.90
2023-04-24T01:53:23.479Z,99.90
2023-04-24T01:55:49.623Z,99.90
2023-04-24T01:58:16.065Z,99.90
2023-04-24T02:00:42.256Z,99.90
2023-04-24T02:03:08.600Z,99.90
2023-04-24T02:05:34.825Z,99.90
2023-04-24T02:08:01.011Z,99.90
2023-04-24T02:10:27.166Z,99.90
2023-04-24T02:12:53.319Z,99.90
2023-04-24T02:15:19.879Z,99.90
2023-04-24T02:17:46.073Z,99.90
2023-04-24T02:20:12.953Z,99.90
2023-04-24T02:22:39.230Z,99.90
2023-04-24T02:25:08.442Z,99.90
2023-04-24T02:27:34.586Z,99.90
2023-04-24T02:30:01.103Z,99.90
2023-04-24T02:32:27.230Z,99.90
2023-04-24T02:34:53.875Z,99.90
2023-04-24T02:37:20.021Z,99.90
2023-04-24T02:39:46.456Z,99.90
2023-04-24T02:42:12.643Z,99.90
2023-04-24T02:44:38.878Z,99.90
2023-04-24T02:47:05.288Z,99.90
2023-04-24T02:49:31.555Z,99.90
2023-04-24T02:51:57.823Z,99.90
2023-04-24T02:54:23.979Z,99.90
2023-04-24T02:56:50.099Z,99.90
2023-04-24T02:59:16.889Z,99.90
2023-04-24T03:01:43.124Z,99.90
2023-04-24T03:04:10.704Z,99.90
2023-04-24T03:06:37.423Z,99.90
2023-04-24T03:09:03.930Z,99.90
2023-04-24T03:11:30.044Z,99.90
2023-04-24T03:13:56.213Z,99.90
2023-04-24T03:16:22.351Z,99.90
2023-04-24T03:18:48.634Z,99.90
2023-04-24T03:21:15.045Z,99.90
2023-04-24T03:23:41.206Z,99.90
2023-04-24T03:26:07.354Z,99.90
2023-04-24T03:28:33.488Z,99.90
2023-04-24T03:31:00.745Z,99.90
2023-04-24T03:33:27.052Z,99.90
2023-04-24T03:35:53.321Z,99.90
2023-04-24T03:38:19.529Z,99.90
2023-04-24T03:40:45.624Z,99.90
2023-04-24T03:43:12.070Z,99.90
2023-04-24T03:45:38.847Z,99.90
2023-04-24T03:48:05.047Z,99.90
2023-04-24T03:50:31.216Z,99.90
2023-04-24T03:52:57.361Z,99.90
2023-04-24T03:55:23.536Z,99.90
2023-04-24T03:57:49.680Z,99.90
2023-04-24T04:00:16.407Z,99.90
2023-04-24T04:02:42.710Z,99.90
2023-04-24T04:05:09.849Z,99.90
2023-04-24T04:07:36.176Z,99.90
2023-04-24T04:10:02.672Z,99.90
2023-04-24T04:12:28.899Z,99.90
2023-04-24T04:14:55.099Z,99.90
2023-04-24T04:17:21.277Z,99.90
2023-04-24T04:19:47.456Z,99.90
2023-04-24T04:22:13.724Z,99.90
2023-04-24T04:24:40.885Z,99.90
2023-04-24T04:27:09.458Z,99.90
2023-04-24T04:29:36.015Z,99.90
2023-04-24T04:32:02.871Z,99.90
2023-04-24T04:34:30.045Z,99.90
2023-04-24T04:36:56.165Z,99.90
2023-04-24T04:39:22.290Z,99.90
2023-04-24T04:41:49.227Z,99.90
2023-04-24T04:44:15.932Z,99.90
2023-04-24T04:46:42.376Z,99.90
2023-04-24T04:49:08.993Z,99.90
2023-04-24T04:51:35.325Z,99.90
2023-04-24T04:54:01.476Z,99.90
2023-04-24T04:56:27.643Z,99.90
2023-04-24T04:58:54.313Z,99.90
2023-04-24T05:01:20.501Z,99.90
2023-04-24T05:03:46.847Z,99.90
2023-04-24T05:06:13.091Z,99.90
2023-04-24T05:08:39.302Z,99.90
2023-04-24T05:11:06.535Z,99.90
2023-04-24T05:13:39.902Z,99.90
2023-04-24T05:16:07.786Z,99.90
2023-04-24T05:18:34.107Z,99.90
2023-04-24T05:21:00.561Z,99.90
2023-04-24T05:23:27.253Z,99.90
2023-04-24T05:25:53.444Z,99.90
2023-04-24T05:28:20.128Z,99.90
2023-04-24T05:30:46.300Z,99.90
2023-04-24T05:33:12.618Z,99.90
2023-04-24T05:35:40.155Z,99.90
2023-04-24T05:38:06.379Z,99.00
2023-04-24T05:40:32.594Z,98.10
2023-04-24T05:42:58.868Z,97.30
2023-04-24T05:45:25.524Z,97.60
2023-04-24T05:47:53.023Z,98.20
2023-04-24T05:50:19.608Z,97.60
2023-04-24T05:52:45.787Z,97.80
2023-04-24T05:55:11.926Z,97.40
2023-04-24T05:57:38.364Z,96.80
2023-04-24T06:00:08.360Z,97.20
2023-04-24T06:02:34.699Z,96.20
2023-04-24T06:05:01.124Z,96.90
2023-04-24T06:07:27.466Z,95.80
2023-04-24T06:09:53.602Z,97.50
2023-04-24T06:12:19.737Z,95.20
2023-04-24T06:14:45.940Z,94.70
2023-04-24T06:17:12.850Z,93.40
2023-04-24T06:19:39.321Z,94.90
2023-04-24T06:22:05.509Z,94.80
2023-04-24T06:24:31.739Z,94.40
2023-04-24T06:26:59.243Z,93.80
2023-04-24T06:29:25.435Z,92.90
2023-04-24T06:31:51.667Z,92.60
2023-04-24T06:34:19.313Z,92.60
2023-04-24T06:36:46.639Z,91.90
2023-04-24T06:39:12.839Z,92.60
2023-04-24T06:41:40.215Z,91.70
2023-04-24T06:44:06.551Z,93.70
2023-04-24T06:46:32.814Z,92.60
2023-04-24T06:48:59.064Z,93.10
2023-04-24T06:51:25.883Z,93.40
2023-04-24T06:53:53.181Z,92.80
2023-04-24T06:56:19.702Z,93.00
2023-04-24T06:58:45.970Z,92.90
2023-04-24T07:01:12.428Z,93.10
2023-04-24T07:03:38.886Z,93.70
2023-04-24T07:06:06.418Z,93.90
2023-04-24T07:08:33.507Z,94.00
2023-04-24T07:11:00.027Z,94.00
2023-04-24T07:13:26.978Z,94.20
2023-04-24T07:15:57.066Z,94.90
2023-04-24T07:18:24.101Z,93.60
2023-04-24T07:20:52.888Z,93.40
2023-04-24T07:23:19.861Z,93.50
2023-04-24T07:25:46.380Z,93.10
2023-04-24T07:28:13.035Z,93.40
2023-04-24T07:30:39.202Z,92.90
2023-04-24T07:33:05.472Z,91.00
2023-04-24T07:35:31.782Z,91.50
2023-04-24T07:37:58.024Z,88.60
2023-04-24T07:40:24.294Z,90.10
2023-04-24T07:42:50.884Z,87.70
2023-04-24T07:45:17.321Z,88.00
2023-04-24T07:47:46.199Z,82.60
2023-04-24T07:50:13.547Z,83.50
2023-04-24T07:52:39.884Z,85.10
2023-04-24T07:55:07.544Z,84.40
2023-04-24T07:57:33.738Z,86.70
2023-04-24T07:59:59.860Z,86.60
2023-04-24T08:02:27.333Z,87.60
2023-04-24T08:04:54.652Z,88.10
2023-04-24T08:07:21.023Z,88.70
2023-04-24T08:09:47.223Z,87.50
2023-04-24T08:12:13.629Z,87.20
2023-04-24T08:14:39.928Z,89.80
2023-04-24T08:17:06.176Z,87.00
2023-04-24T08:19:32.751Z,89.80
2023-04-24T08:21:58.959Z,88.90
2023-04-24T08:24:25.568Z,88.60
2023-04-24T08:26:52.632Z,90.40
2023-04-24T08:29:19.729Z,89.40
2023-04-24T08:31:46.392Z,91.40
2023-04-24T08:34:12.717Z,91.50
2023-04-24T08:36:47.071Z,92.40
2023-04-24T08:39:14.584Z,92.90
2023-04-24T08:41:43.347Z,94.40
2023-04-24T08:44:10.772Z,95.30
2023-04-24T08:46:37.352Z,95.80
2023-04-24T08:49:04.140Z,94.30
2023-04-24T08:51:30.926Z,94.50
2023-04-24T08:53:57.915Z,93.30
2023-04-24T08:56:24.262Z,89.60
2023-04-24T08:58:52.169Z,91.30
2023-04-24T09:01:20.028Z,89.30
2023-04-24T09:03:49.024Z,88.40
2023-04-24T09:06:15.356Z,85.10
2023-04-24T09:08:42.301Z,85.30
2023-04-24T09:11:08.776Z,84.30
2023-04-24T09:13:34.931Z,85.00
2023-04-24T09:16:01.172Z,84.10
2023-04-24T09:18:27.787Z,86.10
2023-04-24T09:21:32.245Z,85.20
2023-04-24T09:24:04.624Z,84.80
2023-04-24T09:26:34.233Z,83.80
2023-04-24T09:29:01.144Z,84.40
2023-04-24T09:31:28.736Z,81.10
2023-04-24T09:33:57.334Z,83.30
2023-04-24T09:36:34.653Z,80.10
2023-04-24T09:39:01.357Z,79.80
2023-04-24T09:41:28.508Z,76.90
2023-04-24T09:43:56.519Z,77.50
2023-04-24T09:46:30.674Z,77.70
2023-04-24T09:48:56.930Z,73.70
2023-04-24T09:51:39.988Z,70.90
2023-04-24T09:54:20.275Z,76.30
2023-04-24T09:56:48.493Z,77.00
2023-04-24T09:59:15.500Z,75.10
2023-04-24T10:01:49.666Z,73.20
2023-04-24T10:04:20.917Z,74.20
2023-04-24T10:06:51.291Z,76.00
2023-04-24T10:09:18.513Z,75.70
2023-04-24T10:11:46.640Z,77.10
2023-04-24T10:14:24.014Z,76.10
2023-04-24T10:16:51.271Z,77.30
2023-04-24T10:19:18.901Z,78.40
2023-04-24T10:21:48.013Z,81.00
2023-04-24T10:24:15.914Z,77.20
2023-04-24T10:26:42.725Z,79.00
2023-04-24T10:29:12.762Z,81.60
2023-04-24T10:31:39.159Z,81.20
2023-04-24T10:34:06.504Z,77.50
2023-04-24T10:36:34.021Z,82.20
2023-04-24T10:39:01.722Z,79.90
2023-04-24T10:41:28.004Z,76.40
2023-04-24T10:44:11.229Z,75.70
2023-04-24T10:46:40.127Z,72.40
2023-04-24T10:49:09.877Z,76.30
2023-04-24T10:51:53.413Z,73.30
2023-04-24T10:55:38.206Z,73.00
2023-04-24T10:58:04.624Z,73.80
2023-04-24T11:00:30.841Z,78.80
2023-04-24T11:02:58.070Z,77.90
2023-04-24T11:05:50.544Z,76.80
2023-04-24T11:08:24.355Z,77.10
2023-04-24T11:11:04.193Z,80.80
2023-04-24T11:14:16.142Z,80.90
2023-04-24T11:16:52.081Z,83.80
2023-04-24T11:19:26.068Z,83.50
2023-04-24T11:22:03.181Z,85.20
2023-04-24T11:24:40.637Z,86.90
2023-04-24T11:27:16.948Z,86.40
2023-04-24T11:30:02.150Z,80.60
2023-04-24T11:32:40.192Z,77.60
2023-04-24T11:35:17.568Z,76.50
2023-04-24T11:38:08.111Z,78.50
2023-04-24T11:40:46.058Z,73.90
2023-04-24T11:43:12.700Z,73.40
2023-04-24T11:45:48.134Z,74.60
2023-04-24T11:48:22.708Z,72.20
2023-04-24T11:50:49.351Z,74.60
2023-04-24T11:53:15.526Z,72.30
2023-04-24T11:55:41.744Z,70.40
2023-04-24T11:58:07.915Z,71.30
2023-04-24T12:00:34.617Z,73.10
2023-04-24T12:03:11.983Z,74.50
2023-04-24T12:05:39.059Z,78.80
2023-04-24T12:08:05.654Z,81.50
2023-04-24T12:10:32.758Z,79.00
2023-04-24T12:12:59.233Z,83.40
2023-04-24T12:15:25.455Z,83.80
2023-04-24T12:17:52.395Z,83.80
2023-04-24T12:20:23.899Z,82.60
2023-04-24T12:22:58.022Z,81.80
2023-04-24T12:25:28.312Z,82.90
2023-04-24T12:28:55.718Z,83.60
2023-04-24T12:31:22.602Z,83.60
2023-04-24T12:33:48.862Z,84.60
2023-04-24T12:36:15.291Z,83.30
2023-04-24T12:38:44.778Z,84.60
2023-04-24T12:41:12.687Z,83.00
2023-04-24T12:43:39.154Z,86.50
2023-04-24T12:46:06.041Z,87.20
2023-04-24T12:48:32.634Z,85.40
2023-04-24T12:51:01.891Z,86.50
2023-04-24T12:53:29.811Z,84.50
2023-04-24T12:55:56.663Z,85.40
2023-04-24T12:58:22.792Z,85.00
2023-04-24T13:00:49.040Z,88.20
2023-04-24T13:03:17.469Z,90.90
2023-04-24T13:05:44.669Z,89.20
2023-04-24T13:08:10.929Z,91.70
2023-04-24T13:10:37.094Z,90.90
2023-04-24T13:13:04.281Z,90.70
2023-04-24T13:15:30.453Z,90.80
2023-04-24T13:17:56.754Z,90.90
2023-04-24T13:20:22.976Z,91.60
2023-04-24T13:22:49.161Z,92.90
2023-04-24T13:25:17.626Z,93.60
2023-04-24T13:27:43.838Z,93.90
2023-04-24T13:30:10.897Z,94.90
2023-04-24T13:32:37.162Z,95.00
2023-04-24T13:35:04.939Z,97.20
2023-04-24T13:37:31.086Z,97.60
2023-04-24T13:39:57.289Z,97.00
2023-04-24T13:42:23.481Z,96.80
2023-04-24T13:44:49.943Z,96.10
2023-04-24T13:47:16.244Z,95.50
2023-04-24T13:49:42.480Z,95.50
2023-04-24T13:52:10.600Z,94.60
2023-04-24T13:54:36.826Z,94.40
2023-04-24T13:57:04.134Z,95.10
2023-04-24T13:59:30.444Z,95.60
2023-04-24T14:01:56.751Z,96.00
2023-04-24T14:04:23.310Z,95.80
2023-04-24T14:06:49.732Z,95.50
2023-04-24T14:09:16.318Z,95.70
2023-04-24T14:11:42.553Z,95.70
2023-04-24T14:14:08.714Z,94.90
2023-04-24T14:16:35.497Z,95.10
2023-04-24T14:19:01.702Z,94.60
2023-04-24T14:21:27.879Z,94.30
2023-04-24T14:23:54.259Z,93.10
2023-04-24T14:26:20.550Z,93.40
2023-04-24T14:28:46.768Z,92.70
2023-04-24T14:31:13.168Z,91.80
2023-04-24T14:33:39.380Z,91.80
2023-04-24T14:36:06.061Z,91.00
2023-04-24T14:38:32.434Z,91.20
2023-04-24T14:41:07.289Z,91.10
2023-04-24T14:43:35.484Z,90.90
2023-04-24T14:46:02.009Z,90.60
2023-04-24T14:48:28.196Z,91.10
2023-04-24T14:50:54.504Z,90.40
2023-04-24T14:53:21.120Z,91.00
2023-04-24T14:55:47.546Z,91.10
2023-04-24T14:58:13.798Z,91.50
2023-04-24T15:00:39.959Z,91.20
2023-04-24T15:03:07.833Z,91.50
2023-04-24T15:05:34.348Z,92.00
2023-04-24T15:08:01.002Z,91.40
2023-04-24T15:10:27.761Z,92.40
2023-04-24T15:12:54.009Z,91.80
2023-04-24T15:15:20.289Z,93.90
2023-04-24T15:17:46.687Z,93.30
2023-04-24T15:20:13.232Z,94.10
2023-04-24T15:22:39.728Z,93.80
2023-04-24T15:25:06.681Z,93.70
2023-04-24T15:27:42.943Z,94.70
2023-04-24T15:30:11.124Z,95.20
2023-04-24T15:32:37.991Z,95.90
2023-04-24T15:35:08.604Z,96.20
2023-04-24T15:37:35.724Z,96.40
2023-04-24T15:40:04.461Z,96.90
2023-04-24T15:42:30.697Z,97.60
2023-04-24T15:44:56.938Z,97.90
2023-04-24T15:47:23.559Z,98.30
2023-04-24T15:49:49.705Z,99.20
2023-04-24T15:52:16.062Z,99.60
2023-04-24T15:54:42.189Z,99.50
2023-04-24T15:57:08.369Z,99.70
2023-04-24T15:59:34.775Z,99.90
2023-04-24T16:02:01.519Z,99.90
2023-04-24T16:04:27.864Z,99.90
2023-04-24T16:06:55.417Z,99.90
2023-04-24T16:09:21.595Z,99.90
2023-04-24T16:11:49.198Z,99.90
2023-04-24T16:14:15.671Z,99.90
2023-04-24T16:16:41.882Z,99.90
2023-04-24T16:19:07.998Z,99.90
2023-04-24T16:21:34.304Z,99.90
2023-04-24T16:24:00.524Z,99.90
2023-04-24T16:26:26.832Z,99.90
2023-04-24T16:28:53.749Z,99.90
2023-04-24T16:31:20.018Z,99.90
2023-04-24T16:33:46.179Z,99.90
2023-04-24T16:36:12.840Z,99.90
2023-04-24T16:38:39.181Z,99.90
2023-04-24T16:41:05.505Z,99.90
2023-04-24T16:43:31.779Z,99.90
2023-04-24T16:45:59.960Z,99.90
2023-04-24T16:48:26.228Z,99.90
2023-04-24T16:50:52.703Z,99.90
2023-04-24T16:53:18.958Z,99.90
2023-04-24T16:55:45.720Z,99.90
2023-04-24T16:58:11.969Z,99.90
2023-04-24T17:00:38.256Z,99.90
2023-04-24T17:03:04.899Z,99.90
2023-04-24T17:05:32.152Z,99.90
2023-04-24T17:07:58.426Z,99.90
2023-04-24T17:10:24.582Z,99.90
2023-04-24T17:12:50.825Z,99.90
2023-04-24T17:15:17.085Z,99.90
2023-04-24T17:17:45.491Z,99.90
2023-04-24T17:20:21.979Z,99.90
2023-04-24T17:22:49.833Z,99.90
2023-04-24T17:25:16.189Z,99.90
2023-04-24T17:27:42.482Z,99.90
2023-04-24T17:30:11.408Z,99.90
2023-04-24T17:32:37.733Z,99.90
2023-04-24T17:35:05.901Z,99.90
2023-04-24T17:37:34.260Z,99.90
2023-04-24T17:40:00.505Z,99.90
2023-04-24T17:42:27.492Z,99.90
2023-04-24T17:44:53.690Z,99.90
2023-04-24T17:47:21.677Z,99.90
2023-04-24T17:49:48.256Z,99.90
2023-04-24T17:52:16.997Z,99.90
2023-04-24T17:54:43.372Z,99.90
2023-04-24T17:57:09.617Z,99.90
2023-04-24T17:59:37.367Z,99.90
2023-04-24T18:02:03.688Z,99.90
2023-04-24T18:04:30.607Z,99.90
2023-04-24T18:06:57.126Z,99.90
2023-04-24T18:09:23.514Z,99.90
2023-04-24T18:11:49.971Z,99.90
2023-04-24T18:14:17.315Z,99.90
2023-04-24T18:16:43.582Z,99.90
2023-04-24T18:19:10.002Z,99.90
2023-04-24T18:21:36.382Z,99.90
2023-04-24T18:24:02.953Z,99.90
2023-04-24T18:26:29.155Z,99.90
2023-04-24T18:28:55.535Z,99.90
2023-04-24T18:31:23.342Z,99.90
2023-04-24T18:33:50.381Z,99.90
2023-04-24T18:36:16.699Z,99.90
2023-04-24T18:38:44.068Z,99.90
2023-04-24T18:41:11.054Z,99.90
2023-04-24T18:43:37.558Z,99.90
2023-04-24T18:46:04.209Z,99.90
2023-04-24T18:48:30.634Z,99.90
2023-04-24T18:50:57.471Z,99.90
2023-04-24T18:53:24.622Z,99.90
2023-04-24T18:55:51.002Z,99.90
2023-04-24T18:58:17.922Z,99.90
2023-04-24T19:00:47.263Z,99.90
2023-04-24T19:03:14.640Z,99.90
2023-04-24T19:05:42.046Z,99.90
2023-04-24T19:08:08.540Z,99.90
2023-04-24T19:10:36.051Z,99.90
2023-04-24T19:13:02.927Z,99.90
2023-04-24T19:15:29.661Z,99.90
2023-04-24T19:17:57.390Z,99.90
2023-04-24T19:20:27.646Z,99.90
2023-04-24T19:22:54.657Z,99.90
2023-04-24T19:25:21.089Z,99.90
2023-04-24T19:27:47.417Z,99.90
2023-04-24T19:30:18.054Z,99.90
2023-04-24T19:32:44.636Z,99.90
2023-04-24T19:35:12.785Z,99.90
2023-04-24T19:37:39.236Z,99.90
2023-04-24T19:40:07.981Z,99.90
2023-04-24T19:42:43.229Z,99.90
2023-04-24T19:45:12.715Z,99.90
2023-04-24T19:47:39.548Z,99.90
2023-04-24T19:50:06.881Z,99.90
2023-04-24T19:52:33.697Z,99.90
2023-04-24T19:55:00.569Z,99.90
2023-04-24T19:57:30.153Z,99.90
2023-04-24T20:00:00.415Z,99.90
2023-04-24T20:02:27.963Z,99.90
2023-04-24T20:04:54.659Z,99.90
2023-04-24T20:07:21.709Z,99.90
2023-04-24T20:09:47.894Z,99.90
2023-04-24T20:12:14.261Z,99.90
2023-04-24T20:14:40.873Z,99.90
2023-04-24T20:17:07.643Z,99.90
2023-04-24T20:19:37.133Z,99.90
2023-04-24T20:22:05.253Z,99.90
2023-04-24T20:24:33.324Z,99.90
2023-04-24T20:27:00.764Z,99.90
2023-04-24T20:29:27.957Z,99.90
2023-04-24T20:31:54.223Z,99.90
2023-04-24T20:34:20.885Z,99.90
2023-04-24T20:36:49.798Z,99.90
2023-04-24T20:39:16.354Z,99.90
2023-04-24T20:41:44.420Z,99.90
2023-04-24T20:44:11.013Z,99.90
2023-04-24T20:46:37.740Z,99.90
2023-04-24T20:49:04.745Z,99.90
2023-04-24T20:51:32.437Z,99.90
2023-04-24T20:53:58.794Z,99.90
2023-04-24T20:56:25.099Z,99.90
2023-04-24T20:58:53.026Z,99.90
2023-04-24T21:01:20.864Z,99.90
2023-04-24T21:03:47.511Z,99.90
2023-04-24T21:06:14.316Z,99.90
2023-04-24T21:08:40.626Z,99.90
2023-04-24T21:11:06.832Z,99.90
2023-04-24T21:13:33.030Z,99.90
2023-04-24T21:15:59.130Z,99.90
2023-04-24T21:18:25.790Z,99.90
2023-04-24T21:20:52.695Z,99.90
2023-04-24T21:23:18.928Z,99.90
2023-04-24T21:25:45.113Z,99.90
2023-04-24T21:28:11.361Z,99.90
2023-04-24T21:30:38.246Z,99.90
2023-04-24T21:33:04.588Z,99.90
2023-04-24T21:35:31.350Z,99.90
2023-04-24T21:37:57.725Z,99.90
2023-04-24T21:40:23.849Z,99.90
2023-04-24T21:42:51.360Z,99.90
2023-04-24T21:45:17.557Z,99.90
2023-04-24T21:47:43.799Z,99.90
2023-04-24T21:50:11.042Z,99.90
2023-04-24T21:52:37.198Z,99.90
2023-04-24T21:55:05.132Z,99.90
2023-04-24T21:57:31.310Z,99.90
2023-04-24T21:59:57.441Z,99.90
2023-04-24T22:02:24.176Z,99.90
2023-04-24T22:04:51.023Z,99.90
2023-04-24T22:07:17.312Z,99.90
2023-04-24T22:09:44.210Z,99.90
2023-04-24T22:12:10.380Z,99.90
2023-04-24T22:14:36.517Z,99.90
2023-04-24T22:17:04.113Z,99.90
2023-04-24T22:19:30.276Z,99.90
2023-04-24T22:21:57.970Z,99.90
2023-04-24T22:24:24.168Z,99.90
2023-04-24T22:26:50.303Z,99.90
2023-04-24T22:29:16.462Z,99.90
2023-04-24T22:31:42.693Z,99.90
2023-04-24T22:34:10.662Z,99.90
2023-04-24T22:36:36.870Z,99.90
2023-04-24T22:39:04.375Z,99.90
2023-04-24T22:41:30.949Z,99.90
2023-04-24T22:43:57.098Z,99.90
2023-04-24T22:46:24.346Z,99.90
2023-04-24T22:48:50.544Z,99.90
2023-04-24T22:51:17.389Z,99.90
2023-04-24T22:53:44.692Z,99.90
2023-04-24T22:56:11.562Z,99.90
2023-04-24T22:58:37.867Z,99.90
2023-04-24T23:01:04.191Z,99.90
2023-04-24T23:03:31.079Z,99.90
2023-04-24T23:05:57.390Z,99.90
2023-04-24T23:08:23.601Z,99.90
2023-04-24T23:10:49.790Z,99.90
2023-04-24T23:13:16.010Z,99.90
2023-04-24T23:15:42.340Z,99.90
2023-04-24T23:18:08.577Z,99.90
2023-04-24T23:20:34.747Z,99.90
2023-04-24T23:23:01.252Z,99.90
2023-04-24T23:25:27.438Z,99.90
2023-04-24T23:27:53.623Z,99.90
2023-04-24T23:30:20.358Z,99.90
2023-04-24T23:32:46.535Z,99.90
2023-04-24T23:35:12.762Z,99.90
2023-04-24T23:37:39.051Z,99.90
2023-04-24T23:40:09.267Z,99.90
2023-04-24T23:42:35.774Z,99.90
2023-04-24T23:45:02.439Z,99.90
2023-04-24T23:47:28.616Z,99.90
2023-04-24T23:49:54.773Z,99.90
2023-04-24T23:52:20.920Z,99.90
2023-04-24T23:54:47.044Z,99.90
2023-04-24T23:57:13.220Z,99.90
2023-04-24T23:59:39.340Z,99.90
